createdAt,value
2023-01-08T00:01:04.919Z,8.61
2023-01-08T00:04:08.800Z,8.27
2023-01-08T00:07:14.065Z,8.44
2023-01-08T00:10:18.025Z,8.50
2023-01-08T00:13:21.815Z,8.58
2023-01-08T00:16:25.716Z,8.54
2023-01-08T00:19:29.888Z,8.52
2023-01-08T00:22:34.945Z,8.48
2023-01-08T00:25:38.571Z,8.62
2023-01-08T00:28:43.186Z,8.56
2023-01-08T00:31:46.964Z,8.36
2023-01-08T00:34:50.748Z,8.31
2023-01-08T00:37:55.944Z,8.28
2023-01-08T00:40:59.758Z,8.34
2023-01-08T00:44:03.623Z,7.85
2023-01-08T00:47:07.612Z,7.46
2023-01-08T00:50:12.049Z,8.10
2023-01-08T00:53:17.315Z,8.07
2023-01-08T00:56:21.211Z,7.74
2023-01-08T00:59:25.053Z,7.59
2023-01-08T01:02:29.253Z,7.67
2023-01-08T01:05:33.585Z,7.82
2023-01-08T01:08:39.063Z,7.62
2023-01-08T01:11:42.779Z,7.95
2023-01-08T01:14:46.525Z,7.80
2023-01-08T01:17:50.228Z,7.75
2023-01-08T01:20:53.884Z,7.94
2023-01-08T01:24:01.255Z,8.00
2023-01-08T01:27:04.920Z,7.85
2023-01-08T01:30:10.009Z,7.95
2023-01-08T01:33:13.666Z,7.93
2023-01-08T01:36:18.845Z,7.96
2023-01-08T01:39:27.885Z,7.89
2023-01-08T01:42:44.497Z,7.74
2023-01-08T01:45:48.208Z,7.90
2023-01-08T01:48:54.992Z,7.97
2023-01-08T01:52:02.685Z,8.01
2023-01-08T01:55:11.703Z,8.13
2023-01-08T01:58:18.973Z,8.09
2023-01-08T02:01:23.729Z,7.74
2023-01-08T02:04:27.404Z,7.85
2023-01-08T02:07:41.209Z,7.78
2023-01-08T02:10:52.859Z,7.57
2023-01-08T02:14:06.075Z,7.89
2023-01-08T02:17:14.879Z,8.05
2023-01-08T02:20:22.615Z,8.03
2023-01-08T02:23:35.550Z,8.00
2023-01-08T02:26:40.561Z,8.03
2023-01-08T02:29:44.436Z,8.06
2023-01-08T02:32:48.092Z,7.67
2023-01-08T02:35:56.314Z,7.70
2023-01-08T02:39:10.313Z,7.46
2023-01-08T02:42:21.714Z,7.43
2023-01-08T02:45:37.127Z,7.66
2023-01-08T02:48:46.795Z,7.78
2023-01-08T02:51:53.115Z,7.82
2023-01-08T02:54:58.603Z,7.80
2023-01-08T02:58:05.139Z,7.75
2023-01-08T03:01:11.517Z,7.65
2023-01-08T03:04:19.114Z,7.01
2023-01-08T03:07:23.199Z,7.37
2023-01-08T03:10:30.772Z,7.41
2023-01-08T03:13:40.014Z,7.36
2023-01-08T03:16:48.994Z,7.42
2023-01-08T03:19:57.604Z,7.53
2023-01-08T03:23:04.590Z,7.60
2023-01-08T03:26:09.149Z,7.67
2023-01-08T03:29:18.539Z,7.46
2023-01-08T03:32:24.532Z,7.54
2023-01-08T03:35:29.376Z,7.51
2023-01-08T03:38:37.890Z,7.73
2023-01-08T03:41:41.612Z,7.68
2023-01-08T03:44:46.867Z,7.79
2023-01-08T03:47:51.885Z,7.82
2023-01-08T03:50:55.623Z,7.76
2023-01-08T03:54:01.265Z,7.74
2023-01-08T03:57:05.063Z,7.76
2023-01-08T04:00:11.978Z,7.64
2023-01-08T04:03:15.575Z,7.45
2023-01-08T04:06:19.137Z,7.65
2023-01-08T04:09:22.744Z,7.55
2023-01-08T04:12:26.353Z,7.42
2023-01-08T04:15:31.502Z,7.53
2023-01-08T04:18:35.720Z,7.50
2023-01-08T04:21:39.876Z,7.53
2023-01-08T04:24:43.627Z,7.53
2023-01-08T04:27:47.133Z,7.63
2023-01-08T04:30:52.238Z,7.59
2023-01-08T04:33:55.806Z,7.57
2023-01-08T04:36:59.508Z,7.45
2023-01-08T04:40:03.199Z,7.44
2023-01-08T04:43:06.825Z,7.26
2023-01-08T04:46:12.076Z,7.44
2023-01-08T04:49:16.076Z,7.26
2023-01-08T04:52:19.738Z,7.49
2023-01-08T04:55:23.330Z,7.19
2023-01-08T04:58:26.935Z,7.37
2023-01-08T05:01:32.144Z,7.16
2023-01-08T05:04:35.823Z,7.31
2023-01-08T05:07:39.469Z,7.21
2023-01-08T05:10:43.081Z,7.26
2023-01-08T05:13:50.229Z,7.16
2023-01-08T05:16:55.308Z,7.14
2023-01-08T05:19:58.864Z,7.22
2023-01-08T05:23:03.016Z,7.05
2023-01-08T05:26:08.387Z,7.04
2023-01-08T05:29:12.135Z,7.10
2023-01-08T05:32:19.124Z,6.90
2023-01-08T05:35:22.786Z,6.72
2023-01-08T05:38:26.462Z,6.78
2023-01-08T05:41:30.015Z,6.51
2023-01-08T05:44:33.720Z,6.74
2023-01-08T05:47:38.703Z,6.64
2023-01-08T05:50:42.541Z,6.69
2023-01-08T05:53:48.236Z,6.53
2023-01-08T05:56:51.835Z,6.67
2023-01-08T05:59:55.453Z,6.92
2023-01-08T06:03:00.642Z,6.96
2023-01-08T06:06:06.591Z,7.16
2023-01-08T06:09:10.525Z,7.03
2023-01-08T06:12:14.179Z,7.04
2023-01-08T06:15:17.931Z,7.14
2023-01-08T06:18:23.027Z,7.15
2023-01-08T06:21:26.681Z,7.32
2023-01-08T06:24:30.319Z,7.65
2023-01-08T06:27:33.867Z,8.07
2023-01-08T06:30:37.475Z,8.37
2023-01-08T06:33:42.560Z,8.57
2023-01-08T06:36:46.163Z,8.86
2023-01-08T06:39:49.771Z,9.23
2023-01-08T06:42:53.745Z,8.92
2023-01-08T06:45:58.688Z,9.37
2023-01-08T06:49:03.969Z,9.54
2023-01-08T06:52:07.844Z,9.57
2023-01-08T06:55:11.993Z,9.28
2023-01-08T06:58:15.713Z,9.05
2023-01-08T07:01:19.962Z,8.79
2023-01-08T07:04:25.559Z,8.40
2023-01-08T07:07:29.445Z,8.21
2023-01-08T07:10:33.296Z,8.24
2023-01-08T07:13:37.109Z,8.15
2023-01-08T07:16:40.953Z,8.19
2023-01-08T07:19:46.073Z,8.09
2023-01-08T07:22:49.804Z,8.00
2023-01-08T07:25:53.599Z,8.31
2023-01-08T07:28:57.373Z,8.69
2023-01-08T07:32:01.078Z,9.34
2023-01-08T07:35:06.927Z,9.55
2023-01-08T07:38:10.739Z,9.89
2023-01-08T07:41:14.634Z,9.76
2023-01-08T07:44:18.552Z,10.08
2023-01-08T07:47:22.470Z,10.58
2023-01-08T07:50:28.731Z,10.59
2023-01-08T07:53:32.696Z,10.79
2023-01-08T07:56:36.530Z,11.03
2023-01-08T07:59:40.374Z,11.07
2023-01-08T08:02:44.425Z,11.39
2023-01-08T08:05:49.724Z,11.66
2023-01-08T08:08:53.514Z,12.00
2023-01-08T08:11:57.498Z,12.46
2023-01-08T08:15:01.282Z,12.59
2023-01-08T08:18:05.714Z,12.53
2023-01-08T08:21:11.046Z,12.47
2023-01-08T08:24:14.781Z,12.86
2023-01-08T08:27:18.592Z,13.04
2023-01-08T08:30:22.384Z,13.03
2023-01-08T08:33:26.145Z,13.09
2023-01-08T08:36:32.498Z,13.42
2023-01-08T08:39:36.448Z,13.66
2023-01-08T08:42:40.234Z,13.39
2023-01-08T08:45:44.312Z,13.94
2023-01-08T08:48:48.378Z,12.87
2023-01-08T08:51:53.707Z,13.54
2023-01-08T08:54:57.507Z,13.78
2023-01-08T08:58:06.273Z,14.22
2023-01-08T09:01:10.068Z,14.33
2023-01-08T09:04:13.991Z,14.64
2023-01-08T09:07:19.354Z,14.44
2023-01-08T09:10:23.375Z,14.82
2023-01-08T09:13:27.104Z,14.73
2023-01-08T09:16:30.980Z,14.70
2023-01-08T09:19:34.825Z,15.02
2023-01-08T09:22:40.153Z,15.07
2023-01-08T09:25:44.000Z,15.31
2023-01-08T09:28:47.868Z,15.63
2023-01-08T09:31:51.891Z,15.62
2023-01-08T09:34:55.763Z,15.48
2023-01-08T09:38:01.194Z,15.54
2023-01-08T09:41:08.312Z,15.78
2023-01-08T09:44:17.287Z,15.81
2023-01-08T09:47:26.833Z,15.96
2023-01-08T09:50:33.333Z,16.03
2023-01-08T09:53:38.725Z,16.25
2023-01-08T09:56:43.243Z,16.21
2023-01-08T09:59:49.034Z,16.09
2023-01-08T10:02:54.656Z,16.12
2023-01-08T10:05:58.635Z,16.02
2023-01-08T10:09:05.417Z,15.55
2023-01-08T10:12:14.433Z,15.93
2023-01-08T10:15:20.747Z,15.66
2023-01-08T10:18:27.364Z,15.96
2023-01-08T10:21:33.395Z,15.77
2023-01-08T10:24:40.894Z,15.13
2023-01-08T10:27:50.346Z,15.87
2023-01-08T10:30:56.132Z,16.03
2023-01-08T10:34:10.961Z,16.13
2023-01-08T10:37:24.694Z,16.13
2023-01-08T10:40:38.583Z,16.03
2023-01-08T10:43:52.354Z,16.45
2023-01-08T10:47:00.404Z,16.37
2023-01-08T10:50:07.033Z,16.33
2023-01-08T10:53:26.071Z,16.70
2023-01-08T10:56:41.843Z,16.39
2023-01-08T10:59:45.658Z,16.37
2023-01-08T11:02:50.853Z,16.64
2023-01-08T11:05:54.674Z,16.67
2023-01-08T11:09:01.464Z,16.81
2023-01-08T11:12:22.713Z,17.01
2023-01-08T11:15:32.751Z,16.88
2023-01-08T11:18:45.393Z,16.70
2023-01-08T11:21:57.953Z,16.82
2023-01-08T11:25:01.746Z,16.91
2023-01-08T11:28:08.701Z,16.78
2023-01-08T11:31:16.704Z,15.47
2023-01-08T11:34:26.519Z,15.33
2023-01-08T11:37:34.913Z,15.69
2023-01-08T11:40:47.754Z,15.86
2023-01-08T11:44:06.777Z,16.28
2023-01-08T11:47:18.464Z,16.76
2023-01-08T11:50:29.177Z,16.81
2023-01-08T11:53:40.018Z,16.95
2023-01-08T11:57:05.457Z,16.16
2023-01-08T12:00:39.675Z,16.03
2023-01-08T12:03:48.680Z,16.40
2023-01-08T12:07:01.491Z,16.21
2023-01-08T12:10:15.419Z,16.49
2023-01-08T12:13:36.152Z,16.47
2023-01-08T12:16:56.087Z,16.66
2023-01-08T12:20:13.847Z,16.14
2023-01-08T12:23:32.356Z,16.58
2023-01-08T12:26:46.834Z,16.40
2023-01-08T12:30:05.323Z,16.44
2023-01-08T12:33:14.967Z,16.62
2023-01-08T12:36:28.597Z,16.41
2023-01-08T12:39:40.424Z,16.40
2023-01-08T12:42:47.392Z,16.22
2023-01-08T12:45:58.525Z,16.22
2023-01-08T12:49:06.316Z,15.61
2023-01-08T12:52:18.123Z,15.71
2023-01-08T12:55:33.454Z,15.79
2023-01-08T12:58:50.216Z,15.68
2023-01-08T13:02:02.819Z,15.64
2023-01-08T13:05:15.652Z,16.02
2023-01-08T13:08:34.467Z,15.63
2023-01-08T13:11:42.495Z,15.80
2023-01-08T13:14:51.784Z,15.55
2023-01-08T13:17:57.755Z,15.53
2023-01-08T13:21:04.585Z,15.73
2023-01-08T13:24:27.026Z,15.72
2023-01-08T13:27:31.505Z,15.79
2023-01-08T13:30:39.064Z,15.38
2023-01-08T13:33:43.582Z,15.54
2023-01-08T13:36:58.767Z,15.71
2023-01-08T13:40:04.274Z,15.74
2023-01-08T13:43:14.806Z,15.60
2023-01-08T13:46:20.727Z,15.76
2023-01-08T13:49:30.296Z,15.72
2023-01-08T13:52:43.193Z,15.70
2023-01-08T13:55:57.286Z,15.65
2023-01-08T13:59:01.232Z,15.34
2023-01-08T14:02:05.969Z,15.19
2023-01-08T14:05:20.993Z,15.07
2023-01-08T14:08:27.645Z,14.99
2023-01-08T14:11:34.106Z,14.94
2023-01-08T14:14:40.736Z,14.83
2023-01-08T14:17:46.106Z,14.24
2023-01-08T14:20:52.633Z,14.05
2023-01-08T14:23:58.115Z,13.85
2023-01-08T14:27:02.264Z,13.69
2023-01-08T14:30:17.560Z,13.70
2023-01-08T14:33:26.104Z,13.42
2023-01-08T14:36:29.935Z,13.48
2023-01-08T14:39:38.606Z,13.48
2023-01-08T14:42:47.463Z,13.43
2023-01-08T14:45:54.134Z,13.29
2023-01-08T14:48:58.774Z,13.29
2023-01-08T14:52:04.174Z,13.26
2023-01-08T14:55:18.867Z,13.08
2023-01-08T14:58:25.746Z,13.12
2023-01-08T15:01:31.758Z,13.04
2023-01-08T15:04:35.764Z,13.02
2023-01-08T15:07:39.636Z,12.95
2023-01-08T15:10:44.882Z,12.93
2023-01-08T15:13:50.535Z,12.97
2023-01-08T15:16:56.343Z,12.86
2023-01-08T15:20:02.210Z,12.76
2023-01-08T15:23:06.137Z,12.78
2023-01-08T15:26:16.109Z,12.65
2023-01-08T15:29:21.664Z,12.53
2023-01-08T15:32:28.962Z,12.39
2023-01-08T15:35:32.744Z,12.29
2023-01-08T15:38:36.523Z,12.36
2023-01-08T15:41:59.837Z,12.31
2023-01-08T15:45:03.809Z,12.34
2023-01-08T15:48:08.647Z,12.17
2023-01-08T15:51:12.514Z,12.06
2023-01-08T15:54:16.915Z,12.03
2023-01-08T15:57:22.404Z,12.02
2023-01-08T16:00:26.314Z,11.96
2023-01-08T16:03:30.943Z,12.13
2023-01-08T16:06:36.352Z,11.93
2023-01-08T16:09:40.173Z,11.81
2023-01-08T16:12:45.900Z,11.86
2023-01-08T16:15:49.701Z,11.70
2023-01-08T16:18:53.897Z,11.69
2023-01-08T16:21:57.727Z,11.68
2023-01-08T16:25:01.475Z,11.75
2023-01-08T16:28:07.094Z,11.78
2023-01-08T16:31:11.477Z,11.61
2023-01-08T16:34:15.793Z,11.59
2023-01-08T16:37:19.625Z,11.55
2023-01-08T16:40:23.425Z,11.60
2023-01-08T16:43:30.175Z,11.63
2023-01-08T16:46:34.092Z,11.57
2023-01-08T16:49:38.407Z,11.48
2023-01-08T16:52:43.272Z,11.41
2023-01-08T16:55:46.937Z,11.40
2023-01-08T16:58:53.595Z,11.29
2023-01-08T17:01:57.427Z,11.21
2023-01-08T17:05:01.331Z,11.12
2023-01-08T17:08:05.435Z,11.05
2023-01-08T17:11:11.539Z,11.01
2023-01-08T17:14:17.065Z,10.87
2023-01-08T17:17:20.869Z,10.94
2023-01-08T17:20:24.754Z,10.91
2023-01-08T17:23:29.127Z,10.89
2023-01-08T17:26:32.992Z,11.03
2023-01-08T17:29:38.327Z,11.08
2023-01-08T17:32:42.374Z,10.99
2023-01-08T17:35:46.393Z,10.93
2023-01-08T17:38:50.939Z,10.89
2023-01-08T17:42:11.795Z,10.74
2023-01-08T17:45:17.564Z,10.68
2023-01-08T17:48:21.275Z,10.55
2023-01-08T17:51:24.953Z,10.45
2023-01-08T17:54:29.038Z,10.37
2023-01-08T17:57:32.973Z,10.37
2023-01-08T18:00:38.369Z,10.29
2023-01-08T18:03:42.156Z,10.26
2023-01-08T18:06:46.355Z,10.19
2023-01-08T18:09:52.990Z,10.03
2023-01-08T18:12:56.724Z,10.16
2023-01-08T18:16:04.982Z,10.02
2023-01-08T18:19:08.763Z,9.97
2023-01-08T18:22:12.535Z,9.84
2023-01-08T18:25:16.343Z,9.65
2023-01-08T18:28:20.603Z,9.60
2023-01-08T18:31:26.143Z,9.70
2023-01-08T18:34:29.943Z,9.50
2023-01-08T18:37:34.625Z,9.35
2023-01-08T18:40:38.333Z,9.35
2023-01-08T18:43:42.184Z,9.26
2023-01-08T18:46:48.281Z,9.22
2023-01-08T18:49:53.433Z,9.26
2023-01-08T18:52:57.315Z,9.43
2023-01-08T18:56:01.694Z,9.49
2023-01-08T18:59:06.729Z,9.52
2023-01-08T19:02:19.473Z,9.51
2023-01-08T19:05:23.729Z,9.55
2023-01-08T19:08:27.584Z,9.80
2023-01-08T19:11:31.363Z,9.97
2023-01-08T19:14:35.196Z,9.92
2023-01-08T19:17:40.905Z,9.72
2023-01-08T19:20:46.454Z,9.60
2023-01-08T19:23:50.628Z,9.44
2023-01-08T19:26:54.490Z,9.10
2023-01-08T19:29:58.176Z,9.33
2023-01-08T19:33:03.480Z,9.28
2023-01-08T19:36:12.935Z,9.24
2023-01-08T19:39:16.775Z,9.08
2023-01-08T19:42:38.124Z,9.25
2023-01-08T19:45:41.914Z,8.90
2023-01-08T19:48:47.403Z,9.13
2023-01-08T19:51:51.192Z,9.05
2023-01-08T19:54:55.451Z,9.21
2023-01-08T19:57:59.973Z,9.09
2023-01-08T20:01:10.353Z,9.14
2023-01-08T20:04:15.993Z,8.91
2023-01-08T20:07:19.794Z,9.22
2023-01-08T20:10:23.603Z,8.85
2023-01-08T20:13:27.496Z,8.98
2023-01-08T20:16:31.611Z,9.00
2023-01-08T20:19:37.645Z,8.91
2023-01-08T20:22:41.556Z,8.98
2023-01-08T20:25:45.792Z,9.04
2023-01-08T20:28:50.752Z,9.07
2023-01-08T20:31:59.606Z,8.98
2023-01-08T20:35:05.007Z,9.06
2023-01-08T20:38:09.244Z,8.87
2023-01-08T20:41:13.662Z,9.19
2023-01-08T20:44:17.683Z,9.31
2023-01-08T20:47:21.583Z,9.43
2023-01-08T20:50:26.992Z,9.50
2023-01-08T20:53:31.093Z,9.46
2023-01-08T20:56:35.382Z,9.07
2023-01-08T20:59:39.202Z,9.14
2023-01-08T21:02:43.961Z,9.17
2023-01-08T21:05:49.471Z,9.19
2023-01-08T21:08:54.770Z,8.90
2023-01-08T21:11:58.615Z,8.69
2023-01-08T21:15:02.451Z,8.71
2023-01-08T21:18:06.558Z,8.73
2023-01-08T21:21:13.603Z,8.68
2023-01-08T21:24:17.391Z,8.67
2023-01-08T21:27:21.274Z,7.70
2023-01-08T21:30:25.193Z,8.04
2023-01-08T21:33:29.014Z,8.31
2023-01-08T21:36:34.552Z,8.41
2023-01-08T21:39:38.475Z,8.39
2023-01-08T21:42:59.501Z,8.26
2023-01-08T21:46:04.076Z,8.15
2023-01-08T21:49:07.935Z,8.16
2023-01-08T21:52:30.764Z,8.10
2023-01-08T21:55:35.276Z,8.03
2023-01-08T21:58:39.034Z,8.15
2023-01-08T22:01:42.875Z,8.03
2023-01-08T22:04:47.413Z,8.08
2023-01-08T22:07:52.743Z,8.17
2023-01-08T22:10:56.653Z,8.07
2023-01-08T22:14:00.365Z,8.06
2023-01-08T22:17:08.652Z,7.83
2023-01-08T22:20:13.685Z,7.94
2023-01-08T22:23:19.043Z,7.55
2023-01-08T22:26:22.804Z,7.68
2023-01-08T22:29:26.733Z,7.75
2023-01-08T22:32:30.625Z,7.80
2023-01-08T22:35:34.562Z,7.60
2023-01-08T22:38:40.105Z,7.61
2023-01-08T22:41:44.732Z,7.48
2023-01-08T22:44:50.584Z,7.50
2023-01-08T22:47:54.418Z,7.51
2023-01-08T22:51:03.810Z,7.61
2023-01-08T22:54:09.124Z,7.58
2023-01-08T22:57:12.904Z,7.62
2023-01-08T23:00:17.539Z,7.50
2023-01-08T23:03:21.455Z,7.60
2023-01-08T23:06:27.591Z,7.61
2023-01-08T23:09:32.899Z,7.62
2023-01-08T23:12:36.785Z,7.48
2023-01-08T23:15:40.593Z,7.29
2023-01-08T23:18:44.925Z,7.32
2023-01-08T23:21:48.672Z,7.20
2023-01-08T23:24:53.934Z,7.09
2023-01-08T23:27:57.791Z,7.03
2023-01-08T23:31:02.015Z,6.89
2023-01-08T23:34:06.245Z,6.56
2023-01-08T23:37:10.036Z,6.59
2023-01-08T23:40:16.280Z,6.24
2023-01-08T23:43:20.190Z,6.55
2023-01-08T23:46:24.049Z,6.49
2023-01-08T23:49:27.853Z,6.53
2023-01-08T23:52:31.522Z,6.55
2023-01-08T23:55:36.903Z,6.49
2023-01-08T23:58:40.854Z,6.74
